Time;durP1;ratioP1;P1;durP2;ratioP2;P2;SDS_P1;SDS_P2;PMS_P1;PMS_P2;Temp;Humidity;BMP_temperature;BMP_pressure;BME280_temperature;BME280_humidity;BME280_pressure;Samples;Min_cycle;Max_cycle;Signal;HPM_P1;HPM_P2
2022/03/17 00:01:18;;;;;;;46.53;21.90;;;7.40;99.90;;;;;;5031114;28;20368;-57
2022/03/17 00:03:45;;;;;;;50.45;22.38;;;7.40;99.90;;;;;;5030688;28;20368;-57
2022/03/17 00:06:13;;;;;;;54.42;22.63;;;7.40;99.90;;;;;;5030235;28;20036;-57
2022/03/17 00:08:39;;;;;;;50.75;23.23;;;7.40;99.90;;;;;;5031752;28;20037;-55
2022/03/17 00:11:05;;;;;;;49.15;22.63;;;7.40;99.90;;;;;;5030272;28;20045;-57
2022/03/17 00:13:31;;;;;;;51.33;23.73;;;7.40;99.90;;;;;;5031305;28;20030;-55
2022/03/17 00:15:57;;;;;;;49.80;22.88;;;7.30;99.90;;;;;;5030055;28;20061;-56
2022/03/17 00:18:23;;;;;;;51.60;23.80;;;7.30;99.90;;;;;;5030917;28;20123;-57
2022/03/17 00:20:48;;;;;;;53.85;24.33;;;7.30;99.90;;;;;;5031016;28;20035;-56
2022/03/17 00:23:14;;;;;;;54.42;25.05;;;7.20;99.90;;;;;;5029528;28;20444;-57
2022/03/17 00:25:40;;;;;;;53.55;23.38;;;7.20;99.90;;;;;;5030048;28;20029;-57
2022/03/17 00:28:06;;;;;;;53.67;22.50;;;7.20;99.90;;;;;;5029301;28;20029;-59
2022/03/17 00:30:31;;;;;;;53.13;23.55;;;7.20;99.90;;;;;;5030772;28;20077;-58
2022/03/17 00:32:57;;;;;;;56.75;25.60;;;7.20;99.90;;;;;;5030024;28;20406;-59
2022/03/17 00:35:35;;;;;;;55.70;25.10;;;7.20;99.90;;;;;;5030461;28;20052;-58
2022/03/17 00:38:07;;;;;;;60.95;25.98;;;7.20;99.90;;;;;;5030182;28;20064;-58
2022/03/17 00:40:35;;;;;;;61.55;26.05;;;7.20;99.90;;;;;;5031085;28;20438;-58
2022/03/17 00:43:02;;;;;;;60.83;26.83;;;7.20;99.90;;;;;;5029673;28;20061;-58
2022/03/17 00:45:29;;;;;;;59.67;27.15;;;7.10;99.90;;;;;;5029991;28;20502;-58
2022/03/17 00:47:55;;;;;;;68.13;29.05;;;7.10;99.90;;;;;;5029948;28;20497;-57
2022/03/17 00:50:21;;;;;;;67.50;30.00;;;7.10;99.90;;;;;;5030401;28;20030;-57
2022/03/17 00:52:47;;;;;;;72.38;30.48;;;7.10;99.90;;;;;;5029956;28;20117;-59
2022/03/17 00:55:13;;;;;;;70.70;30.40;;;7.10;99.90;;;;;;5028986;28;20609;-58
2022/03/17 00:57:40;;;;;;;65.18;29.17;;;7.10;99.90;;;;;;5029775;28;20037;-57
2022/03/17 01:00:10;;;;;;;74.35;32.13;;;7.10;99.90;;;;;;5030084;28;20033;-58
2022/03/17 01:02:36;;;;;;;70.15;30.08;;;7.00;99.90;;;;;;5029963;28;20053;-59
2022/03/17 01:05:02;;;;;;;72.72;31.23;;;7.00;99.90;;;;;;5029546;28;20363;-55
2022/03/17 01:07:27;;;;;;;72.05;31.00;;;7.00;99.90;;;;;;5029608;28;20075;-58
2022/03/17 01:09:53;;;;;;;75.30;32.60;;;6.90;99.90;;;;;;5030426;28;20022;-57
2022/03/17 01:12:19;;;;;;;74.20;32.92;;;6.90;99.90;;;;;;5029056;28;20373;-58
2022/03/17 01:14:44;;;;;;;78.57;34.22;;;6.90;99.90;;;;;;5030196;28;20029;-56
2022/03/17 01:17:10;;;;;;;80.65;35.88;;;6.90;99.90;;;;;;5028673;28;20402;-55
2022/03/17 01:19:36;;;;;;;80.88;34.75;;;6.90;99.90;;;;;;5029854;28;20063;-55
2022/03/17 01:22:02;;;;;;;87.13;35.15;;;6.90;99.90;;;;;;5029157;28;20045;-56
2022/03/17 01:24:27;;;;;;;79.75;36.15;;;6.90;99.90;;;;;;5030108;28;20347;-57
2022/03/17 01:26:53;;;;;;;85.38;36.65;;;6.90;99.90;;;;;;5029037;28;20041;-55
2022/03/17 01:29:19;;;;;;;88.50;36.75;;;6.90;99.90;;;;;;5029270;28;20059;-56
2022/03/17 01:31:45;;;;;;;83.05;35.85;;;6.90;99.90;;;;;;5029354;28;20030;-56
2022/03/17 01:34:12;;;;;;;88.35;38.10;;;6.90;99.90;;;;;;5027892;28;20135;-57
2022/03/17 01:36:37;;;;;;;83.25;36.50;;;6.90;99.90;;;;;;5028810;28;20025;-57
2022/03/17 01:39:03;;;;;;;82.38;35.97;;;6.90;99.90;;;;;;5029221;28;20509;-57
2022/03/17 01:41:29;;;;;;;89.15;38.10;;;6.80;99.90;;;;;;5029158;28;20063;-56
2022/03/17 01:43:54;;;;;;;89.57;36.78;;;6.80;99.90;;;;;;5029809;28;20427;-57
2022/03/17 01:46:21;;;;;;;90.72;39.03;;;6.80;99.90;;;;;;5028482;28;20064;-56
2022/03/17 01:48:46;;;;;;;88.32;40.20;;;6.80;99.90;;;;;;5029520;28;20112;-57
2022/03/17 01:51:12;;;;;;;82.22;37.75;;;6.90;99.90;;;;;;5028131;28;20117;-57
2022/03/17 01:53:38;;;;;;;91.32;38.65;;;6.80;99.90;;;;;;5029422;28;20037;-58
2022/03/17 01:56:04;;;;;;;91.70;40.17;;;6.80;99.90;;;;;;5029507;28;20064;-57
2022/03/17 01:58:31;;;;;;;92.68;40.70;;;6.80;99.90;;;;;;5028803;28;20033;-57
2022/03/17 02:00:57;;;;;;;90.18;40.70;;;6.80;99.90;;;;;;5029718;28;20318;-55
2022/03/17 02:03:23;;;;;;;96.45;41.63;;;6.80;99.90;;;;;;5028454;28;20048;-55
2022/03/17 02:05:51;;;;;;;93.15;39.75;;;6.80;99.90;;;;;;5029711;28;20126;-55
2022/03/17 02:08:17;;;;;;;92.93;39.70;;;6.80;99.90;;;;;;5032719;28;20187;-56
2022/03/17 02:13:26;;;;;;;95.10;39.25;;;6.80;99.90;;;;;;5032167;28;20067;-55
2022/03/17 02:15:56;;;;;;;92.97;42.30;;;6.80;99.90;;;;;;5033538;28;20513;-56
2022/03/17 02:18:22;;;;;;;96.15;41.63;;;6.80;99.90;;;;;;5032422;28;20147;-56
2022/03/17 02:20:49;;;;;;;97.03;41.97;;;6.80;99.90;;;;;;5033682;28;20022;-56
2022/03/17 02:26:02;;;;;;;97.63;41.60;;;6.80;99.90;;;;;;5032700;28;20312;-58
2022/03/17 02:28:30;;;;;;;95.25;41.28;;;6.80;99.90;;;;;;5032194;28;20044;-57
2022/03/17 02:30:57;;;;;;;97.35;41.53;;;6.80;99.90;;;;;;5033105;28;20055;-57
2022/03/17 02:33:23;;;;;;;91.20;42.88;;;6.80;99.90;;;;;;5032333;28;20033;-55
2022/03/17 02:35:51;;;;;;;99.38;44.40;;;6.70;99.90;;;;;;5031673;28;20022;-57
2022/03/17 02:38:18;;;;;;;93.93;42.80;;;6.80;99.90;;;;;;5032084;28;20033;-55
2022/03/17 02:40:52;;;;;;;94.53;43.38;;;6.80;99.90;;;;;;5033300;28;20036;-56
2022/03/17 02:43:19;;;;;;;102.47;43.20;;;6.80;99.90;;;;;;5032061;28;20426;-55
2022/03/17 02:45:46;;;;;;;102.00;44.35;;;6.80;99.90;;;;;;5032488;28;20471;-55
2022/03/17 02:48:12;;;;;;;98.60;44.58;;;6.80;99.90;;;;;;5031624;28;20033;-55
2022/03/17 02:50:38;;;;;;;105.88;45.83;;;6.80;99.90;;;;;;5033405;28;20065;-55
2022/03/17 02:53:09;;;;;;;104.78;44.65;;;6.80;99.90;;;;;;5031586;28;20029;-55
2022/03/17 02:55:37;;;;;;;100.50;45.45;;;6.80;99.90;;;;;;5032458;28;20024;-57
2022/03/17 02:58:04;;;;;;;97.47;44.58;;;6.70;99.90;;;;;;5030957;28;20034;-57
2022/03/17 03:00:30;;;;;;;98.18;45.90;;;6.80;99.90;;;;;;5032862;28;20061;-57
2022/03/17 03:02:56;;;;;;;96.78;43.33;;;6.80;99.90;;;;;;5031327;28;20084;-55
2022/03/17 03:05:22;;;;;;;99.38;44.78;;;6.80;99.90;;;;;;5031983;28;20132;-55
2022/03/17 03:07:48;;;;;;;96.57;42.65;;;6.80;99.90;;;;;;5031971;28;20061;-55
2022/03/17 03:10:14;;;;;;;101.18;44.35;;;6.80;99.90;;;;;;5032276;28;20092;-57
2022/03/17 03:12:40;;;;;;;96.68;43.30;;;6.80;99.90;;;;;;5031833;28;20203;-56
2022/03/17 03:15:06;;;;;;;98.38;44.78;;;6.80;99.90;;;;;;5031503;28;20021;-56
2022/03/17 03:17:32;;;;;;;101.07;46.08;;;6.80;99.90;;;;;;5012759;28;20510;-57
2022/03/17 03:19:58;;;;;;;102.63;46.85;;;6.80;99.90;;;;;;5032168;28;20113;-56
2022/03/17 03:22:29;;;;;;;97.47;45.38;;;6.80;99.90;;;;;;5031536;28;20061;-56
2022/03/17 03:24:56;;;;;;;95.22;43.45;;;6.80;99.90;;;;;;5031929;28;20033;-57
2022/03/17 03:27:23;;;;;;;99.80;46.03;;;6.80;99.90;;;;;;5030438;28;20081;-56
2022/03/17 03:29:49;;;;;;;99.43;43.78;;;6.80;99.90;;;;;;5032102;28;20064;-57
2022/03/17 03:32:14;;;;;;;97.80;46.03;;;6.80;99.90;;;;;;5030520;28;20065;-57
2022/03/17 03:34:40;;;;;;;94.78;42.92;;;6.80;99.90;;;;;;5032423;28;20109;-55
2022/03/17 03:37:23;;;;;;;100.35;45.50;;;6.80;99.90;;;;;;5028359;28;20052;-56
2022/03/17 03:39:57;;;;;;;103.55;46.97;;;6.80;99.90;;;;;;5032123;28;20034;-57
2022/03/17 03:42:24;;;;;;;103.78;44.92;;;6.80;99.90;;;;;;5031121;28;20040;-56
2022/03/17 03:44:51;;;;;;;103.22;46.58;;;6.80;99.90;;;;;;5030143;28;20514;-57
2022/03/17 03:47:17;;;;;;;107.15;46.38;;;6.80;99.90;;;;;;5031252;28;20132;-56
2022/03/17 03:49:43;;;;;;;98.75;45.80;;;6.80;99.90;;;;;;5031103;28;20486;-58
2022/03/17 03:52:11;;;;;;;101.38;45.90;;;6.80;99.90;;;;;;5031492;28;20104;-55
2022/03/17 03:54:37;;;;;;;99.10;46.97;;;6.90;99.90;;;;;;5031264;28;20097;-55
2022/03/17 03:57:04;;;;;;;102.78;47.28;;;6.90;99.90;;;;;;5031066;28;20108;-55
2022/03/17 03:59:30;;;;;;;105.35;47.22;;;6.80;99.90;;;;;;5029634;28;20029;-57
2022/03/17 04:02:02;;;;;;;102.03;47.33;;;6.80;99.90;;;;;;5031389;28;20029;-58
2022/03/17 04:04:29;;;;;;;93.15;43.15;;;6.80;99.90;;;;;;5030881;28;20380;-58
2022/03/17 04:06:58;;;;;;;97.85;46.03;;;6.80;99.90;;;;;;5030870;28;20524;-55
2022/03/17 04:09:26;;;;;;;98.65;46.42;;;6.80;99.90;;;;;;5030624;28;20545;-58
2022/03/17 04:11:52;;;;;;;100.10;48.42;;;6.80;99.90;;;;;;5031595;28;20135;-57
2022/03/17 04:14:18;;;;;;;102.88;46.85;;;6.80;99.90;;;;;;5030409;28;20033;-58
2022/03/17 04:16:44;;;;;;;98.90;45.83;;;6.80;99.90;;;;;;5030965;28;20364;-59
2022/03/17 04:19:10;;;;;;;102.57;45.90;;;6.80;99.90;;;;;;5030468;28;21108;-57
2022/03/17 04:21:36;;;;;;;94.47;47.35;;;6.90;99.90;;;;;;5032010;28;20444;-59
2022/03/17 04:24:02;;;;;;;104.45;47.45;;;6.90;99.90;;;;;;5030384;28;20041;-56
2022/03/17 04:26:28;;;;;;;99.10;46.60;;;6.90;99.90;;;;;;5031223;28;20030;-56
2022/03/17 04:28:54;;;;;;;107.93;48.25;;;6.90;99.90;;;;;;5030291;28;20487;-59
2022/03/17 04:31:23;;;;;;;101.45;47.10;;;6.90;99.90;;;;;;5030921;28;20036;-56
2022/03/17 04:33:49;;;;;;;102.78;47.45;;;6.90;99.90;;;;;;5030063;28;20432;-57
2022/03/17 04:36:15;;;;;;;98.30;46.80;;;6.90;99.90;;;;;;5030666;28;20033;-57
2022/03/17 04:38:42;;;;;;;99.15;47.10;;;6.90;99.90;;;;;;5029614;28;20100;-60
2022/03/17 04:41:10;;;;;;;101.63;48.72;;;6.90;99.90;;;;;;5030337;28;20029;-57
2022/03/17 04:43:36;;;;;;;101.20;48.10;;;6.90;99.90;;;;;;5028681;28;20540;-56
2022/03/17 04:46:01;;;;;;;98.00;45.35;;;6.90;99.90;;;;;;5029718;28;20028;-55
2022/03/17 04:48:27;;;;;;;100.32;46.33;;;6.90;99.90;;;;;;5028547;28;20029;-60
2022/03/17 04:50:53;;;;;;;99.70;48.35;;;6.90;99.90;;;;;;5030628;28;20029;-57
2022/03/17 04:53:27;;;;;;;97.72;46.90;;;6.90;99.90;;;;;;5029390;28;20026;-58
2022/03/17 04:55:55;;;;;;;99.47;48.47;;;6.90;99.90;;;;;;5030217;28;20152;-56
2022/03/17 04:58:22;;;;;;;98.70;47.30;;;6.90;99.90;;;;;;5029138;28;20033;-57
2022/03/17 05:00:47;;;;;;;95.60;46.55;;;6.90;99.90;;;;;;5029243;28;20021;-57
2022/03/17 05:03:14;;;;;;;99.93;48.20;;;6.80;99.90;;;;;;5028902;28;20346;-57
2022/03/17 05:05:40;;;;;;;96.70;47.65;;;6.90;99.90;;;;;;5030037;28;20021;-59
2022/03/17 05:08:06;;;;;;;99.07;47.13;;;6.90;99.90;;;;;;5028604;28;20087;-58
2022/03/17 05:10:37;;;;;;;95.35;46.58;;;6.90;99.90;;;;;;5030588;28;20049;-56
2022/03/17 05:13:07;;;;;;;92.78;43.22;;;6.90;99.90;;;;;;5030187;28;20391;-57
2022/03/17 05:15:33;;;;;;;106.53;48.72;;;6.90;99.90;;;;;;5029291;28;20208;-58
2022/03/17 05:17:59;;;;;;;102.20;49.25;;;6.90;99.90;;;;;;5030023;28;20025;-58
2022/03/17 05:20:25;;;;;;;99.57;49.08;;;6.90;99.90;;;;;;5029446;28;20030;-55
2022/03/17 05:22:52;;;;;;;103.05;50.15;;;6.90;99.90;;;;;;5030497;28;20494;-55
2022/03/17 05:25:18;;;;;;;103.03;48.60;;;7.00;99.90;;;;;;5028762;28;20030;-57
2022/03/17 05:27:45;;;;;;;106.55;48.95;;;7.00;99.90;;;;;;5030188;28;20344;-57
2022/03/17 05:30:15;;;;;;;100.65;48.35;;;7.00;99.90;;;;;;5028779;28;20037;-57
2022/03/17 05:32:45;;;;;;;101.90;47.25;;;7.00;99.90;;;;;;5029949;28;20095;-57
2022/03/17 05:35:13;;;;;;;106.53;49.13;;;6.90;99.90;;;;;;5028190;28;20026;-57
2022/03/17 05:37:39;;;;;;;97.38;47.05;;;7.00;99.90;;;;;;5028139;28;20096;-58
2022/03/17 05:40:13;;;;;;;103.20;49.03;;;7.00;99.90;;;;;;5028708;28;20034;-57
2022/03/17 05:42:43;;;;;;;106.40;47.65;;;7.00;99.90;;;;;;5029188;28;20502;-57
2022/03/17 05:45:10;;;;;;;103.50;50.10;;;7.00;99.90;;;;;;5028973;28;20103;-58
2022/03/17 05:47:35;;;;;;;100.00;49.25;;;7.00;99.90;;;;;;5029089;28;20025;-57
2022/03/17 05:50:02;;;;;;;99.93;47.70;;;7.00;99.90;;;;;;5029335;28;20084;-57
2022/03/17 05:52:28;;;;;;;99.95;49.58;;;7.00;99.90;;;;;;5028883;28;20033;-57
2022/03/17 05:54:54;;;;;;;101.85;50.55;;;7.00;99.90;;;;;;5029200;28;20026;-59
2022/03/17 05:57:19;;;;;;;98.07;48.05;;;7.10;99.90;;;;;;5028232;28;20060;-57
2022/03/17 05:59:45;;;;;;;93.38;46.85;;;7.10;99.90;;;;;;5029484;28;20064;-58
2022/03/17 06:02:10;;;;;;;101.47;48.47;;;7.10;99.90;;;;;;5028255;28;20029;-58
2022/03/17 06:04:38;;;;;;;114.53;51.90;;;7.10;99.90;;;;;;5027616;28;20052;-59
2022/03/17 06:07:04;;;;;;;98.10;50.33;;;7.20;99.90;;;;;;5026098;28;20033;-59
2022/03/17 06:09:30;;;;;;;105.57;49.83;;;7.20;99.90;;;;;;5028676;28;20026;-59
2022/03/17 06:11:57;;;;;;;99.95;49.95;;;7.20;99.90;;;;;;5029533;28;20041;-60
2022/03/17 06:14:24;;;;;;;101.88;48.58;;;7.20;99.90;;;;;;5028569;28;20041;-60
2022/03/17 06:16:50;;;;;;;101.32;51.08;;;7.20;99.90;;;;;;5028994;28;20080;-59
2022/03/17 06:19:16;;;;;;;99.70;46.63;;;7.20;99.90;;;;;;5009744;28;20030;-59
2022/03/17 06:21:43;;;;;;;96.85;48.95;;;7.30;99.90;;;;;;5028913;28;20101;-56
2022/03/17 06:24:09;;;;;;;94.55;46.83;;;7.30;99.90;;;;;;5029343;28;20049;-56
2022/03/17 06:26:34;;;;;;;104.30;50.88;;;7.30;99.90;;;;;;5025590;28;20080;-57
2022/03/17 06:29:00;;;;;;;92.75;48.35;;;7.30;99.90;;;;;;5028140;28;20026;-56
2022/03/17 06:31:25;;;;;;;97.00;48.10;;;7.30;99.90;;;;;;5024320;28;20546;-57
2022/03/17 06:33:52;;;;;;;98.60;49.72;;;7.30;99.90;;;;;;5018581;28;20029;-56
2022/03/17 06:36:17;;;;;;;95.47;48.03;;;7.30;99.90;;;;;;5028595;28;20096;-54
2022/03/17 06:38:43;;;;;;;97.30;46.53;;;7.30;99.90;;;;;;5026973;28;20112;-57
2022/03/17 06:41:09;;;;;;;99.88;50.05;;;7.30;99.90;;;;;;5020236;28;20128;-56
2022/03/17 06:43:34;;;;;;;94.97;47.42;;;7.30;99.90;;;;;;5015935;28;20048;-56
2022/03/17 06:46:01;;;;;;;98.72;47.97;;;7.40;99.90;;;;;;5013998;28;20029;-57
2022/03/17 06:48:27;;;;;;;93.75;47.97;;;7.40;99.90;;;;;;5013369;28;20041;-56
2022/03/17 06:50:53;;;;;;;96.28;49.17;;;7.40;99.90;;;;;;5013301;28;20052;-56
2022/03/17 06:53:18;;;;;;;90.75;45.90;;;7.40;99.90;;;;;;5013606;28;20044;-57
2022/03/17 06:55:44;;;;;;;96.32;49.92;;;7.40;99.90;;;;;;5016053;28;20116;-56
2022/03/17 06:58:09;;;;;;;95.13;47.58;;;7.40;99.90;;;;;;5016425;28;20133;-56
2022/03/17 07:00:35;;;;;;;97.72;45.60;;;7.40;99.90;;;;;;5016905;28;20437;-60
2022/03/17 07:03:01;;;;;;;96.75;47.72;;;7.40;99.90;;;;;;5017978;28;20033;-59
2022/03/17 07:05:26;;;;;;;91.85;47.90;;;7.40;99.90;;;;;;5016225;28;20033;-60
2022/03/17 07:07:52;;;;;;;95.60;47.33;;;7.50;99.90;;;;;;5017558;28;20552;-58
2022/03/17 07:10:17;;;;;;;94.70;48.30;;;7.50;99.90;;;;;;5016154;28;20547;-59
2022/03/17 07:12:44;;;;;;;105.25;47.42;;;7.50;99.90;;;;;;5015459;28;20063;-58
2022/03/17 07:15:10;;;;;;;96.93;47.55;;;7.50;99.90;;;;;;5014776;28;20033;-57
2022/03/17 07:17:40;;;;;;;95.53;50.03;;;7.50;99.90;;;;;;5016518;28;20511;-58
2022/03/17 07:20:08;;;;;;;98.82;48.53;;;7.50;99.90;;;;;;5017275;28;20044;-57
2022/03/17 07:22:34;;;;;;;99.60;50.05;;;7.50;99.90;;;;;;5016410;28;20518;-57
2022/03/17 07:24:59;;;;;;;99.40;49.95;;;7.50;99.90;;;;;;5016936;28;20037;-59
2022/03/17 07:27:26;;;;;;;98.13;51.15;;;7.60;99.90;;;;;;5015080;28;20040;-59
2022/03/17 07:29:52;;;;;;;96.47;51.70;;;7.60;99.90;;;;;;5015016;28;20968;-60
2022/03/17 07:32:24;;;;;;;103.00;51.83;;;7.60;99.90;;;;;;5014366;28;20486;-57
2022/03/17 07:34:50;;;;;;;101.05;51.00;;;7.60;99.90;;;;;;5016892;28;21081;-57
2022/03/17 07:37:16;;;;;;;104.90;53.15;;;7.50;99.90;;;;;;5019122;28;20052;-56
2022/03/17 07:39:42;;;;;;;107.00;53.28;;;7.60;99.90;;;;;;5025970;28;20056;-51
2022/03/17 07:42:08;;;;;;;105.38;53.00;;;7.60;99.90;;;;;;5029462;28;20433;-58
2022/03/17 07:44:35;;;;;;;103.22;54.03;;;7.70;99.90;;;;;;5014600;28;20026;-57
2022/03/17 07:47:01;;;;;;;108.60;53.00;;;7.70;99.90;;;;;;5021710;28;20513;-59
2022/03/17 07:49:26;;;;;;;103.53;53.17;;;7.70;99.90;;;;;;5032340;28;20061;-61
2022/03/17 07:51:53;;;;;;;102.78;51.53;;;7.80;99.90;;;;;;5032029;28;20240;-62
2022/03/17 07:54:19;;;;;;;105.80;54.95;;;7.80;99.90;;;;;;5031766;28;20100;-53
2022/03/17 07:56:44;;;;;;;104.25;53.55;;;7.80;99.90;;;;;;5031731;28;20100;-51
2022/03/17 07:59:10;;;;;;;104.35;51.80;;;7.80;99.90;;;;;;5031584;28;20037;-58
2022/03/17 08:01:36;;;;;;;101.72;53.30;;;7.80;99.90;;;;;;5026288;28;20494;-58
2022/03/17 08:04:01;;;;;;;102.90;51.47;;;7.70;99.90;;;;;;5022299;28;20030;-57
2022/03/17 08:06:28;;;;;;;106.38;51.97;;;7.70;99.90;;;;;;5020789;28;20105;-57
2022/03/17 08:08:55;;;;;;;97.35;50.38;;;7.70;99.90;;;;;;5031046;28;20025;-58
2022/03/17 08:11:23;;;;;;;94.45;50.13;;;7.70;99.90;;;;;;5029633;28;20033;-56
2022/03/17 08:13:49;;;;;;;101.35;51.55;;;7.70;99.90;;;;;;5030735;28;20506;-56
2022/03/17 08:16:15;;;;;;;100.85;52.17;;;7.70;99.90;;;;;;5029111;28;20034;-55
2022/03/17 08:18:41;;;;;;;100.57;49.95;;;7.70;99.90;;;;;;5030323;28;20037;-57
2022/03/17 08:21:07;;;;;;;95.85;49.80;;;7.70;99.90;;;;;;5031313;28;20073;-56
2022/03/17 08:23:32;;;;;;;95.68;50.58;;;7.70;99.90;;;;;;5031779;28;20034;-56
2022/03/17 08:25:58;;;;;;;93.55;49.97;;;7.80;99.90;;;;;;5030604;28;20033;-58
2022/03/17 08:28:25;;;;;;;101.20;51.80;;;7.80;99.90;;;;;;5031432;28;20038;-58
2022/03/17 08:30:51;;;;;;;96.00;49.78;;;7.80;99.90;;;;;;5029311;28;20044;-57
2022/03/17 08:33:18;;;;;;;99.63;51.35;;;7.80;99.90;;;;;;5028194;28;20037;-56
2022/03/17 08:35:45;;;;;;;100.25;50.88;;;7.90;99.90;;;;;;5030814;28;20079;-55
2022/03/17 08:38:12;;;;;;;98.43;50.45;;;7.90;99.90;;;;;;5029449;28;20026;-57
2022/03/17 08:40:38;;;;;;;99.30;52.38;;;7.90;99.90;;;;;;5030130;28;20100;-57
2022/03/17 08:43:08;;;;;;;94.90;50.22;;;7.90;99.90;;;;;;5026722;28;20034;-57
2022/03/17 08:51:02;;;;;;;96.38;50.00;;;7.90;99.90;;;;;;5015292;28;20051;-57
2022/03/17 08:53:28;;;;;;;98.00;52.35;;;7.90;99.90;;;;;;5009957;28;20391;-56
2022/03/17 08:55:54;;;;;;;96.00;51.15;;;7.90;99.90;;;;;;5012295;28;20029;-55
2022/03/17 08:58:19;;;;;;;101.35;52.22;;;7.90;99.90;;;;;;5028826;28;20501;-57
2022/03/17 09:00:46;;;;;;;100.78;53.67;;;7.90;99.90;;;;;;5028085;28;20041;-57
2022/03/17 09:03:12;;;;;;;98.53;51.50;;;7.90;99.90;;;;;;5028818;28;20507;-55
2022/03/17 09:05:37;;;;;;;103.03;52.70;;;7.90;99.90;;;;;;5028356;28;20152;-56
2022/03/17 09:08:05;;;;;;;106.80;53.67;;;7.90;99.90;;;;;;5028975;28;20048;-57
2022/03/17 09:10:31;;;;;;;103.25;51.80;;;7.90;99.90;;;;;;5023062;28;20104;-57
2022/03/17 09:13:06;;;;;;;98.43;53.03;;;7.90;99.90;;;;;;5029646;28;20511;-57
2022/03/17 09:15:32;;;;;;;108.45;53.88;;;7.90;99.90;;;;;;5029412;28;20120;-55
2022/03/17 09:17:58;;;;;;;99.15;52.63;;;7.90;99.90;;;;;;5029051;28;20552;-56
2022/03/17 09:20:24;;;;;;;110.15;56.75;;;7.80;99.90;;;;;;5028353;28;20021;-56
2022/03/17 09:22:50;;;;;;;107.20;55.65;;;7.80;99.90;;;;;;5030871;28;20052;-57
2022/03/17 09:25:18;;;;;;;102.93;56.10;;;7.80;99.90;;;;;;5008525;28;20484;-56
2022/03/17 09:27:44;;;;;;;110.90;56.90;;;7.80;99.90;;;;;;5026122;28;20339;-55
2022/03/17 09:30:10;;;;;;;103.70;55.05;;;7.80;99.90;;;;;;5028340;28;20030;-56
2022/03/17 09:32:35;;;;;;;118.15;58.08;;;7.80;99.90;;;;;;5019013;28;20475;-55
2022/03/17 09:35:02;;;;;;;107.68;54.72;;;7.70;99.90;;;;;;5011123;28;20041;-55
2022/03/17 09:37:28;;;;;;;110.47;55.72;;;7.80;99.90;;;;;;5026910;28;20052;-56
2022/03/17 09:39:54;;;;;;;109.30;57.22;;;7.80;99.90;;;;;;5021497;28;20064;-55
2022/03/17 09:42:21;;;;;;;105.38;56.05;;;7.80;99.90;;;;;;5010223;28;20030;-57
2022/03/17 09:44:52;;;;;;;111.53;58.10;;;7.80;99.90;;;;;;5030281;28;20028;-54
2022/03/17 09:47:20;;;;;;;106.60;56.53;;;7.80;99.90;;;;;;5024309;28;20029;-55
2022/03/17 09:49:48;;;;;;;124.55;55.80;;;7.80;99.90;;;;;;5028441;28;20038;-54
2022/03/17 09:52:17;;;;;;;111.25;56.40;;;7.80;99.90;;;;;;5028552;28;20087;-53
2022/03/17 09:54:44;;;;;;;99.90;54.88;;;7.80;99.90;;;;;;5024866;28;20025;-54
2022/03/17 09:57:10;;;;;;;102.43;52.67;;;7.80;99.90;;;;;;5028325;28;20040;-54
2022/03/17 09:59:36;;;;;;;113.45;56.83;;;7.80;99.90;;;;;;5030386;28;20164;-55
2022/03/17 10:02:03;;;;;;;103.50;55.67;;;7.90;99.90;;;;;;5031569;28;20574;-54
2022/03/17 10:04:32;;;;;;;105.90;56.28;;;7.90;99.90;;;;;;5031564;28;20038;-53
2022/03/17 10:07:00;;;;;;;105.05;57.03;;;7.90;99.90;;;;;;5031324;28;20032;-54
2022/03/17 10:09:28;;;;;;;115.68;57.92;;;7.90;99.90;;;;;;5031194;28;20037;-55
2022/03/17 10:12:11;;;;;;;103.65;53.63;;;7.90;99.90;;;;;;5031147;28;20048;-54
2022/03/17 10:14:50;;;;;;;106.03;56.95;;;7.90;99.90;;;;;;5030113;28;20029;-54
2022/03/17 10:17:32;;;;;;;107.95;57.50;;;7.90;99.90;;;;;;5022826;28;20046;-53
2022/03/17 10:20:18;;;;;;;111.00;56.72;;;7.90;99.90;;;;;;5028935;28;20132;-55
2022/03/17 10:22:46;;;;;;;110.57;53.00;;;7.90;99.90;;;;;;5028552;28;20507;-57
2022/03/17 10:25:24;;;;;;;104.90;54.85;;;7.90;99.90;;;;;;5028533;28;20148;-51
2022/03/17 10:27:50;;;;;;;107.43;56.85;;;7.90;99.90;;;;;;5031261;28;20045;-54
2022/03/17 10:30:35;;;;;;;116.15;58.90;;;7.90;99.90;;;;;;5031732;28;20029;-54
2022/03/17 10:33:11;;;;;;;113.10;57.67;;;7.90;99.90;;;;;;5031979;28;20056;-52
2022/03/17 10:35:38;;;;;;;121.70;62.03;;;7.90;99.90;;;;;;5032355;28;20022;-53
2022/03/17 10:38:17;;;;;;;105.68;55.85;;;7.90;99.90;;;;;;5032921;28;20080;-55
2022/03/17 10:40:58;;;;;;;116.80;58.58;;;7.90;99.90;;;;;;5031964;28;20121;-54
2022/03/17 10:43:25;;;;;;;124.50;60.58;;;7.90;99.90;;;;;;5022553;28;20113;-56
2022/03/17 10:46:13;;;;;;;120.03;60.45;;;7.90;99.90;;;;;;5031823;28;20030;-56
2022/03/17 10:49:03;;;;;;;117.88;61.92;;;8.00;99.90;;;;;;5033350;28;20037;-52
2022/03/17 10:51:35;;;;;;;114.45;57.75;;;8.00;99.90;;;;;;5032777;28;20021;-55
2022/03/17 10:54:19;;;;;;;116.68;59.35;;;7.90;99.90;;;;;;5033353;28;20112;-56
2022/03/17 10:57:03;;;;;;;111.43;58.17;;;7.90;99.90;;;;;;5035325;28;20033;-55
2022/03/17 10:59:47;;;;;;;113.60;58.03;;;7.90;99.90;;;;;;5031889;28;20076;-55
2022/03/17 11:02:21;;;;;;;126.05;61.40;;;7.90;99.90;;;;;;5032119;28;20392;-56
2022/03/17 11:05:10;;;;;;;119.32;60.17;;;7.90;99.90;;;;;;5030654;28;20025;-54
2022/03/17 11:07:38;;;;;;;115.50;57.58;;;7.80;99.90;;;;;;5016478;28;20111;-56
2022/03/17 11:10:05;;;;;;;96.35;48.65;;;7.80;99.90;;;;;;5031831;28;20134;-53
2022/03/17 11:12:32;;;;;;;98.93;46.20;;;7.80;99.90;;;;;;5031255;28;20463;-54
2022/03/17 11:14:57;;;;;;;74.03;35.05;;;7.70;99.90;;;;;;5032572;28;20025;-53
2022/03/17 11:17:29;;;;;;;66.22;30.80;;;7.70;99.90;;;;;;5028612;28;20040;-54
2022/03/17 11:20:00;;;;;;;51.97;25.73;;;7.60;99.90;;;;;;5022536;28;20033;-55
2022/03/17 11:22:29;;;;;;;47.42;25.17;;;7.60;99.90;;;;;;5033247;28;20033;-54
2022/03/17 11:25:20;;;;;;;52.70;24.52;;;7.60;99.90;;;;;;5030801;28;20033;-56
2022/03/17 11:27:56;;;;;;;56.38;25.52;;;7.60;99.90;;;;;;5033378;28;20037;-55
2022/03/17 11:30:22;;;;;;;46.10;23.95;;;7.60;99.90;;;;;;5031774;28;20108;-55
2022/03/17 11:32:58;;;;;;;59.90;21.17;;;7.70;99.90;;;;;;5032913;28;20029;-56
2022/03/17 11:35:29;;;;;;;47.88;20.40;;;7.70;99.90;;;;;;5027385;28;20022;-56
2022/03/17 11:38:26;;;;;;;50.22;21.13;;;7.70;99.90;;;;;;5032379;28;20471;-56
2022/03/17 11:41:14;;;;;;;46.28;18.83;;;7.70;99.90;;;;;;5025456;28;20037;-55
2022/03/17 11:43:46;;;;;;;40.10;17.25;;;7.80;99.90;;;;;;5031626;28;20018;-54
2022/03/17 11:46:34;;;;;;;34.53;16.77;;;7.80;99.90;;;;;;5021520;28;20033;-54
2022/03/17 11:49:26;;;;;;;29.92;15.07;;;7.90;99.90;;;;;;4999250;28;20462;-55
2022/03/17 11:51:54;;;;;;;33.10;13.27;;;8.00;99.90;;;;;;5015710;28;20040;-56
2022/03/17 11:54:20;;;;;;;35.33;12.57;;;8.00;99.90;;;;;;5030706;28;20448;-57
2022/03/17 11:56:47;;;;;;;28.65;12.30;;;8.10;99.90;;;;;;5031550;28;20029;-56
2022/03/17 11:59:16;;;;;;;25.23;10.35;;;8.20;99.90;;;;;;5031098;28;20032;-56
2022/03/17 12:01:44;;;;;;;25.50;9.05;;;8.30;99.90;;;;;;5032120;28;20025;-57
2022/03/17 12:04:33;;;;;;;28.45;8.52;;;8.30;99.90;;;;;;5030574;28;20029;-59
2022/03/17 12:07:18;;;;;;;23.15;5.97;;;8.30;99.90;;;;;;5030414;28;20033;-58
2022/03/17 12:09:44;;;;;;;16.23;5.93;;;8.10;99.90;;;;;;5030564;28;20044;-56
2022/03/17 12:12:36;;;;;;;18.02;5.32;;;8.10;99.90;;;;;;5030745;28;20034;-57
2022/03/17 12:15:03;;;;;;;17.10;5.38;;;8.10;99.90;;;;;;5028586;28;20037;-58
2022/03/17 12:17:32;;;;;;;15.85;4.72;;;8.10;99.90;;;;;;5030024;28;20575;-59
2022/03/17 12:20:14;;;;;;;15.43;3.97;;;8.10;99.90;;;;;;5031390;28;20367;-58
2022/03/17 12:22:43;;;;;;;;;;;8.20;99.90;;;;;;5038338;28;20025;-58
2022/03/17 12:25:13;;;;;;;12.93;4.35;;;8.40;99.90;;;;;;5030891;28;19913;-59
2022/03/17 12:27:40;;;;;;;19.33;4.63;;;8.50;99.90;;;;;;5029699;28;20069;-57
2022/03/17 12:30:17;;;;;;;20.67;4.93;;;8.50;99.90;;;;;;5031016;28;20029;-54
2022/03/17 12:32:52;;;;;;;13.88;3.70;;;8.50;99.90;;;;;;5030680;28;20037;-59
2022/03/17 12:35:27;;;;;;;27.63;4.60;;;8.40;99.90;;;;;;5024406;28;20021;-54
2022/03/17 12:38:03;;;;;;;13.75;3.65;;;8.30;99.90;;;;;;5029812;28;20053;-55
2022/03/17 12:40:43;;;;;;;12.52;3.20;;;8.30;99.90;;;;;;5030883;28;20025;-56
2022/03/17 12:43:20;;;;;;;16.63;3.22;;;8.20;99.90;;;;;;5031073;28;20025;-58
2022/03/17 12:45:49;;;;;;;14.25;2.80;;;8.10;99.90;;;;;;5028749;28;20091;-54
2022/03/17 12:48:19;;;;;;;13.18;3.17;;;8.00;99.90;;;;;;5030620;28;20497;-56
2022/03/17 12:50:46;;;;;;;18.50;2.95;;;8.00;99.90;;;;;;5029408;28;20098;-55